Terminal Aerodrome Forecast
Issued by NWS Greer, SC

Current Version | Previous Version | Text Only | Print | Product List | Glossary On
Versions: 1 2 3 4 5 6 7 8 9 10 11 12 13 14 15 16 17 18 19 20 21 22 23 24 25 26
000
FTUS42 KGSP 052155 AAC
TAFGSP
TAF AMD
KGSP 052155Z 0522/0618 01011KT P6SM VCSH OVC007
     FM060100 02011G19KT P6SM OVC015
     FM060400 02010KT P6SM BKN035
     FM060900 03008KT P6SM SCT100=

USA.gov is the U.S. government's official web portal to all federal, state and local government web resources and services.